sensor_id;sensor_type;location;lat;lon;timestamp;P1;durP1;ratioP1;P2;durP2;ratioP2
7179;SDS011;3631;42.152;24.756;2022-08-19T00:01:21;8.55;;;7.75;;
7179;SDS011;3631;42.152;24.756;2022-08-19T00:03:49;8.52;;;7.95;;
7179;SDS011;3631;42.152;24.756;2022-08-19T00:06:16;8.65;;;7.90;;
7179;SDS011;3631;42.152;24.756;2022-08-19T00:08:43;8.60;;;8.02;;
7179;SDS011;3631;42.152;24.756;2022-08-19T00:11:11;8.20;;;7.50;;
7179;SDS011;3631;42.152;24.756;2022-08-19T00:13:39;10.73;;;8.15;;
7179;SDS011;3631;42.152;24.756;2022-08-19T00:16:06;8.88;;;8.20;;
7179;SDS011;3631;42.152;24.756;2022-08-19T00:18:33;8.27;;;7.70;;
7179;SDS011;3631;42.152;24.756;2022-08-19T00:21:00;8.35;;;7.75;;
7179;SDS011;3631;42.152;24.756;2022-08-19T00:23:28;9.02;;;8.15;;
7179;SDS011;3631;42.152;24.756;2022-08-19T00:25:55;8.90;;;8.02;;
7179;SDS011;3631;42.152;24.756;2022-08-19T00:28:22;8.00;;;7.50;;
7179;SDS011;3631;42.152;24.756;2022-08-19T00:30:50;8.00;;;7.50;;
7179;SDS011;3631;42.152;24.756;2022-08-19T00:33:18;8.40;;;7.72;;
7179;SDS011;3631;42.152;24.756;2022-08-19T00:35:45;8.68;;;7.93;;
7179;SDS011;3631;42.152;24.756;2022-08-19T00:38:12;7.78;;;7.15;;
7179;SDS011;3631;42.152;24.756;2022-08-19T00:40:39;8.32;;;7.75;;
7179;SDS011;3631;42.152;24.756;2022-08-19T00:43:09;8.82;;;7.97;;
7179;SDS011;3631;42.152;24.756;2022-08-19T00:45:38;9.77;;;8.02;;
7179;SDS011;3631;42.152;24.756;2022-08-19T00:48:08;8.60;;;7.80;;
7179;SDS011;3631;42.152;24.756;2022-08-19T00:50:35;8.30;;;7.70;;
7179;SDS011;3631;42.152;24.756;2022-08-19T00:53:05;8.93;;;8.10;;
7179;SDS011;3631;42.152;24.756;2022-08-19T00:55:33;8.75;;;7.88;;
7179;SDS011;3631;42.152;24.756;2022-08-19T00:58:01;9.20;;;8.38;;
7179;SDS011;3631;42.152;24.756;2022-08-19T01:00:30;9.00;;;7.78;;
7179;SDS011;3631;42.152;24.756;2022-08-19T01:03:01;8.27;;;7.68;;
7179;SDS011;3631;42.152;24.756;2022-08-19T01:05:30;8.90;;;8.27;;
7179;SDS011;3631;42.152;24.756;2022-08-19T01:07:58;8.82;;;7.65;;
7179;SDS011;3631;42.152;24.756;2022-08-19T01:10:29;9.25;;;8.50;;
7179;SDS011;3631;42.152;24.756;2022-08-19T01:12:59;10.23;;;8.93;;
7179;SDS011;3631;42.152;24.756;2022-08-19T01:15:29;9.07;;;8.38;;
7179;SDS011;3631;42.152;24.756;2022-08-19T01:17:59;9.65;;;8.88;;
7179;SDS011;3631;42.152;24.756;2022-08-19T01:20:32;9.65;;;8.75;;
7179;SDS011;3631;42.152;24.756;2022-08-19T01:23:00;10.05;;;9.05;;
7179;SDS011;3631;42.152;24.756;2022-08-19T01:25:30;13.38;;;9.32;;
7179;SDS011;3631;42.152;24.756;2022-08-19T01:27:59;10.00;;;9.23;;
7179;SDS011;3631;42.152;24.756;2022-08-19T01:30:26;12.23;;;9.70;;
7179;SDS011;3631;42.152;24.756;2022-08-19T01:32:56;11.30;;;9.00;;
7179;SDS011;3631;42.152;24.756;2022-08-19T01:35:25;9.95;;;9.23;;
7179;SDS011;3631;42.152;24.756;2022-08-19T01:37:54;14.13;;;9.77;;
7179;SDS011;3631;42.152;24.756;2022-08-19T01:40:26;13.80;;;10.57;;
7179;SDS011;3631;42.152;24.756;2022-08-19T01:42:56;11.40;;;10.07;;
7179;SDS011;3631;42.152;24.756;2022-08-19T01:45:24;13.48;;;10.18;;
7179;SDS011;3631;42.152;24.756;2022-08-19T01:47:53;16.58;;;10.15;;
7179;SDS011;3631;42.152;24.756;2022-08-19T01:50:21;21.67;;;16.65;;
7179;SDS011;3631;42.152;24.756;2022-08-19T01:52:48;17.52;;;15.85;;
7179;SDS011;3631;42.152;24.756;2022-08-19T01:55:16;13.27;;;12.05;;
7179;SDS011;3631;42.152;24.756;2022-08-19T01:57:50;12.55;;;11.27;;
7179;SDS011;3631;42.152;24.756;2022-08-19T02:00:22;13.93;;;10.15;;
7179;SDS011;3631;42.152;24.756;2022-08-19T02:02:51;10.93;;;10.13;;
7179;SDS011;3631;42.152;24.756;2022-08-19T02:05:18;13.38;;;11.50;;
7179;SDS011;3631;42.152;24.756;2022-08-19T02:07:46;12.23;;;10.93;;
7179;SDS011;3631;42.152;24.756;2022-08-19T02:10:15;12.55;;;11.35;;
7179;SDS011;3631;42.152;24.756;2022-08-19T02:12:44;50.25;;;32.53;;
7179;SDS011;3631;42.152;24.756;2022-08-19T02:15:12;72.25;;;37.60;;
7179;SDS011;3631;42.152;24.756;2022-08-19T02:17:39;36.97;;;23.83;;
7179;SDS011;3631;42.152;24.756;2022-08-19T02:20:08;41.42;;;25.70;;
7179;SDS011;3631;42.152;24.756;2022-08-19T02:22:36;46.10;;;28.38;;
7179;SDS011;3631;42.152;24.756;2022-08-19T02:25:05;43.40;;;20.83;;
7179;SDS011;3631;42.152;24.756;2022-08-19T02:27:32;48.88;;;26.90;;
7179;SDS011;3631;42.152;24.756;2022-08-19T02:29:59;29.17;;;16.70;;
7179;SDS011;3631;42.152;24.756;2022-08-19T02:32:28;30.15;;;19.73;;
7179;SDS011;3631;42.152;24.756;2022-08-19T02:34:56;30.58;;;18.38;;
7179;SDS011;3631;42.152;24.756;2022-08-19T02:37:23;22.60;;;14.40;;
7179;SDS011;3631;42.152;24.756;2022-08-19T02:40:09;19.15;;;14.18;;
7179;SDS011;3631;42.152;24.756;2022-08-19T02:42:37;17.25;;;13.65;;
7179;SDS011;3631;42.152;24.756;2022-08-19T02:45:04;23.58;;;17.05;;
7179;SDS011;3631;42.152;24.756;2022-08-19T02:47:34;17.85;;;13.70;;
7179;SDS011;3631;42.152;24.756;2022-08-19T02:50:01;16.90;;;12.18;;
7179;SDS011;3631;42.152;24.756;2022-08-19T02:52:29;14.43;;;13.15;;
7179;SDS011;3631;42.152;24.756;2022-08-19T02:54:57;14.75;;;12.73;;
7179;SDS011;3631;42.152;24.756;2022-08-19T02:57:25;14.40;;;12.45;;
7179;SDS011;3631;42.152;24.756;2022-08-19T02:59:52;19.25;;;14.20;;
7179;SDS011;3631;42.152;24.756;2022-08-19T03:02:19;16.13;;;13.02;;
7179;SDS011;3631;42.152;24.756;2022-08-19T03:04:47;15.48;;;11.40;;
7179;SDS011;3631;42.152;24.756;2022-08-19T03:07:15;13.43;;;11.82;;
7179;SDS011;3631;42.152;24.756;2022-08-19T03:09:43;14.38;;;12.50;;
7179;SDS011;3631;42.152;24.756;2022-08-19T03:12:10;14.13;;;12.20;;
7179;SDS011;3631;42.152;24.756;2022-08-19T03:14:37;13.90;;;12.50;;
7179;SDS011;3631;42.152;24.756;2022-08-19T03:17:04;16.13;;;11.20;;
7179;SDS011;3631;42.152;24.756;2022-08-19T03:19:33;12.77;;;11.68;;
7179;SDS011;3631;42.152;24.756;2022-08-19T03:22:01;20.88;;;12.18;;
7179;SDS011;3631;42.152;24.756;2022-08-19T03:24:29;15.88;;;11.60;;
7179;SDS011;3631;42.152;24.756;2022-08-19T03:26:57;13.45;;;12.23;;
7179;SDS011;3631;42.152;24.756;2022-08-19T03:29:24;16.45;;;11.90;;
7179;SDS011;3631;42.152;24.756;2022-08-19T03:31:52;14.75;;;11.40;;
7179;SDS011;3631;42.152;24.756;2022-08-19T03:34:21;15.65;;;11.30;;
7179;SDS011;3631;42.152;24.756;2022-08-19T03:36:51;12.52;;;10.98;;
7179;SDS011;3631;42.152;24.756;2022-08-19T03:39:21;18.50;;;11.88;;
7179;SDS011;3631;42.152;24.756;2022-08-19T03:41:49;20.08;;;12.13;;
7179;SDS011;3631;42.152;24.756;2022-08-19T03:44:18;13.82;;;12.40;;
7179;SDS011;3631;42.152;24.756;2022-08-19T03:46:47;48.38;;;24.38;;
7179;SDS011;3631;42.152;24.756;2022-08-19T03:49:16;21.15;;;15.70;;
7179;SDS011;3631;42.152;24.756;2022-08-19T03:51:43;25.50;;;16.25;;
7179;SDS011;3631;42.152;24.756;2022-08-19T03:54:12;27.67;;;16.88;;
7179;SDS011;3631;42.152;24.756;2022-08-19T03:56:42;51.55;;;22.50;;
7179;SDS011;3631;42.152;24.756;2022-08-19T03:59:15;33.63;;;21.35;;
7179;SDS011;3631;42.152;24.756;2022-08-19T04:01:44;35.53;;;17.98;;
7179;SDS011;3631;42.152;24.756;2022-08-19T04:04:11;25.80;;;15.82;;
7179;SDS011;3631;42.152;24.756;2022-08-19T04:06:38;20.73;;;13.75;;
7179;SDS011;3631;42.152;24.756;2022-08-19T04:09:10;23.08;;;13.73;;
7179;SDS011;3631;42.152;24.756;2022-08-19T04:11:38;19.73;;;13.55;;
7179;SDS011;3631;42.152;24.756;2022-08-19T04:14:08;19.60;;;14.68;;
7179;SDS011;3631;42.152;24.756;2022-08-19T04:16:36;30.67;;;17.80;;
7179;SDS011;3631;42.152;24.756;2022-08-19T04:19:04;27.95;;;14.82;;
7179;SDS011;3631;42.152;24.756;2022-08-19T04:21:33;32.88;;;14.32;;
7179;SDS011;3631;42.152;24.756;2022-08-19T04:24:00;20.48;;;12.98;;
7179;SDS011;3631;42.152;24.756;2022-08-19T04:26:28;30.13;;;13.25;;
7179;SDS011;3631;42.152;24.756;2022-08-19T04:28:57;25.63;;;12.70;;
7179;SDS011;3631;42.152;24.756;2022-08-19T04:31:27;16.00;;;11.60;;
7179;SDS011;3631;42.152;24.756;2022-08-19T04:33:55;16.08;;;11.93;;
7179;SDS011;3631;42.152;24.756;2022-08-19T04:36:24;13.10;;;11.38;;
7179;SDS011;3631;42.152;24.756;2022-08-19T04:38:53;18.15;;;11.45;;
7179;SDS011;3631;42.152;24.756;2022-08-19T04:41:21;13.55;;;11.65;;
7179;SDS011;3631;42.152;24.756;2022-08-19T04:44:06;16.73;;;11.00;;
7179;SDS011;3631;42.152;24.756;2022-08-19T04:46:34;17.10;;;10.70;;
7179;SDS011;3631;42.152;24.756;2022-08-19T04:49:03;11.82;;;10.15;;
7179;SDS011;3631;42.152;24.756;2022-08-19T04:51:31;14.38;;;11.07;;
7179;SDS011;3631;42.152;24.756;2022-08-19T04:54:00;13.23;;;10.65;;
7179;SDS011;3631;42.152;24.756;2022-08-19T04:56:28;18.67;;;10.20;;
7179;SDS011;3631;42.152;24.756;2022-08-19T04:58:55;11.10;;;9.80;;
7179;SDS011;3631;42.152;24.756;2022-08-19T05:01:24;13.50;;;10.43;;
7179;SDS011;3631;42.152;24.756;2022-08-19T05:03:54;18.20;;;10.50;;
7179;SDS011;3631;42.152;24.756;2022-08-19T05:06:23;17.77;;;9.90;;
7179;SDS011;3631;42.152;24.756;2022-08-19T05:08:50;16.10;;;9.85;;
7179;SDS011;3631;42.152;24.756;2022-08-19T05:11:18;19.17;;;10.45;;
7179;SDS011;3631;42.152;24.756;2022-08-19T05:13:47;12.10;;;10.75;;
7179;SDS011;3631;42.152;24.756;2022-08-19T05:16:15;15.45;;;10.43;;
7179;SDS011;3631;42.152;24.756;2022-08-19T05:18:44;15.85;;;11.35;;
7179;SDS011;3631;42.152;24.756;2022-08-19T05:21:30;20.42;;;10.77;;
7179;SDS011;3631;42.152;24.756;2022-08-19T05:24:14;14.45;;;10.00;;
7179;SDS011;3631;42.152;24.756;2022-08-19T05:26:43;15.63;;;8.77;;
7179;SDS011;3631;42.152;24.756;2022-08-19T05:29:12;8.75;;;7.97;;
7179;SDS011;3631;42.152;24.756;2022-08-19T05:31:39;11.00;;;8.27;;
7179;SDS011;3631;42.152;24.756;2022-08-19T05:34:07;8.15;;;7.38;;
7179;SDS011;3631;42.152;24.756;2022-08-19T05:36:37;8.00;;;7.40;;
7179;SDS011;3631;42.152;24.756;2022-08-19T05:39:06;10.88;;;7.32;;
7179;SDS011;3631;42.152;24.756;2022-08-19T05:41:34;8.50;;;7.10;;
7179;SDS011;3631;42.152;24.756;2022-08-19T05:44:02;7.90;;;7.13;;
7179;SDS011;3631;42.152;24.756;2022-08-19T05:46:34;8.18;;;7.43;;
7179;SDS011;3631;42.152;24.756;2022-08-19T05:49:02;8.55;;;7.22;;
7179;SDS011;3631;42.152;24.756;2022-08-19T05:51:30;9.48;;;7.28;;
7179;SDS011;3631;42.152;24.756;2022-08-19T05:54:00;7.57;;;6.97;;
7179;SDS011;3631;42.152;24.756;2022-08-19T05:56:28;12.90;;;11.68;;
7179;SDS011;3631;42.152;24.756;2022-08-19T05:58:55;8.30;;;7.50;;
7179;SDS011;3631;42.152;24.756;2022-08-19T06:01:23;8.85;;;7.32;;
7179;SDS011;3631;42.152;24.756;2022-08-19T06:03:52;12.45;;;7.88;;
7179;SDS011;3631;42.152;24.756;2022-08-19T06:06:19;8.38;;;7.55;;
7179;SDS011;3631;42.152;24.756;2022-08-19T06:08:46;15.48;;;8.25;;
7179;SDS011;3631;42.152;24.756;2022-08-19T06:11:18;16.65;;;8.27;;
7179;SDS011;3631;42.152;24.756;2022-08-19T06:13:48;9.98;;;6.95;;
7179;SDS011;3631;42.152;24.756;2022-08-19T06:16:18;16.30;;;7.78;;
7179;SDS011;3631;42.152;24.756;2022-08-19T06:18:48;12.95;;;8.00;;
7179;SDS011;3631;42.152;24.756;2022-08-19T06:21:17;12.32;;;8.57;;
7179;SDS011;3631;42.152;24.756;2022-08-19T06:23:45;9.48;;;8.50;;
7179;SDS011;3631;42.152;24.756;2022-08-19T06:26:12;15.30;;;7.85;;
7179;SDS011;3631;42.152;24.756;2022-08-19T06:28:41;8.77;;;7.97;;
7179;SDS011;3631;42.152;24.756;2022-08-19T06:31:11;10.80;;;7.40;;
7179;SDS011;3631;42.152;24.756;2022-08-19T06:33:40;7.63;;;6.88;;
7179;SDS011;3631;42.152;24.756;2022-08-19T06:36:08;14.98;;;7.20;;
7179;SDS011;3631;42.152;24.756;2022-08-19T06:38:43;11.40;;;7.95;;
7179;SDS011;3631;42.152;24.756;2022-08-19T06:41:10;8.00;;;7.32;;
7179;SDS011;3631;42.152;24.756;2022-08-19T06:43:37;8.02;;;7.28;;
7179;SDS011;3631;42.152;24.756;2022-08-19T06:46:10;9.93;;;7.28;;
7179;SDS011;3631;42.152;24.756;2022-08-19T06:48:38;8.65;;;7.80;;
7179;SDS011;3631;42.152;24.756;2022-08-19T06:51:05;12.50;;;7.72;;
7179;SDS011;3631;42.152;24.756;2022-08-19T06:53:33;11.52;;;7.75;;
7179;SDS011;3631;42.152;24.756;2022-08-19T06:56:00;11.70;;;8.20;;
7179;SDS011;3631;42.152;24.756;2022-08-19T06:58:28;12.45;;;7.40;;
7179;SDS011;3631;42.152;24.756;2022-08-19T07:00:57;11.35;;;7.90;;
7179;SDS011;3631;42.152;24.756;2022-08-19T07:03:28;10.90;;;7.78;;
7179;SDS011;3631;42.152;24.756;2022-08-19T07:05:57;14.07;;;7.30;;
7179;SDS011;3631;42.152;24.756;2022-08-19T07:08:25;9.00;;;7.55;;
7179;SDS011;3631;42.152;24.756;2022-08-19T07:10:52;8.05;;;7.38;;
7179;SDS011;3631;42.152;24.756;2022-08-19T07:13:19;10.70;;;7.68;;
7179;SDS011;3631;42.152;24.756;2022-08-19T07:15:48;9.73;;;7.30;;
7179;SDS011;3631;42.152;24.756;2022-08-19T07:18:16;9.45;;;7.45;;
7179;SDS011;3631;42.152;24.756;2022-08-19T07:20:47;7.55;;;7.03;;
7179;SDS011;3631;42.152;24.756;2022-08-19T07:23:14;9.13;;;7.57;;
7179;SDS011;3631;42.152;24.756;2022-08-19T07:25:41;8.15;;;7.30;;
7179;SDS011;3631;42.152;24.756;2022-08-19T07:28:08;8.82;;;7.93;;
7179;SDS011;3631;42.152;24.756;2022-08-19T07:30:38;11.00;;;7.28;;
7179;SDS011;3631;42.152;24.756;2022-08-19T07:33:06;11.35;;;7.07;;
7179;SDS011;3631;42.152;24.756;2022-08-19T07:35:33;12.07;;;8.52;;
7179;SDS011;3631;42.152;24.756;2022-08-19T07:38:01;7.95;;;7.22;;
7179;SDS011;3631;42.152;24.756;2022-08-19T07:40:31;10.20;;;7.10;;
7179;SDS011;3631;42.152;24.756;2022-08-19T07:42:58;10.43;;;7.80;;
7179;SDS011;3631;42.152;24.756;2022-08-19T07:45:25;8.27;;;7.45;;
7179;SDS011;3631;42.152;24.756;2022-08-19T07:47:53;9.57;;;6.70;;
7179;SDS011;3631;42.152;24.756;2022-08-19T07:50:20;7.63;;;6.90;;
7179;SDS011;3631;42.152;24.756;2022-08-19T07:52:48;7.05;;;6.40;;
7179;SDS011;3631;42.152;24.756;2022-08-19T07:55:20;6.72;;;6.22;;
7179;SDS011;3631;42.152;24.756;2022-08-19T07:57:50;7.03;;;6.18;;
7179;SDS011;3631;42.152;24.756;2022-08-19T08:00:18;7.80;;;7.15;;
7179;SDS011;3631;42.152;24.756;2022-08-19T08:02:45;10.02;;;6.45;;
7179;SDS011;3631;42.152;24.756;2022-08-19T08:05:12;7.68;;;6.82;;
7179;SDS011;3631;42.152;24.756;2022-08-19T08:07:57;7.38;;;6.78;;
7179;SDS011;3631;42.152;24.756;2022-08-19T08:10:42;10.48;;;6.97;;
7179;SDS011;3631;42.152;24.756;2022-08-19T08:13:09;10.02;;;7.25;;
7179;SDS011;3631;42.152;24.756;2022-08-19T08:15:37;6.38;;;5.93;;
7179;SDS011;3631;42.152;24.756;2022-08-19T08:18:04;9.10;;;8.25;;
7179;SDS011;3631;42.152;24.756;2022-08-19T08:20:32;7.15;;;6.60;;
7179;SDS011;3631;42.152;24.756;2022-08-19T08:22:59;16.35;;;9.48;;
7179;SDS011;3631;42.152;24.756;2022-08-19T08:25:45;8.77;;;7.82;;
7179;SDS011;3631;42.152;24.756;2022-08-19T08:28:13;7.85;;;6.15;;
7179;SDS011;3631;42.152;24.756;2022-08-19T08:30:40;8.13;;;7.45;;
7179;SDS011;3631;42.152;24.756;2022-08-19T08:33:08;7.43;;;6.70;;
7179;SDS011;3631;42.152;24.756;2022-08-19T08:35:36;7.22;;;6.50;;
7179;SDS011;3631;42.152;24.756;2022-08-19T08:38:03;20.27;;;6.13;;
7179;SDS011;3631;42.152;24.756;2022-08-19T08:40:33;10.35;;;6.30;;
7179;SDS011;3631;42.152;24.756;2022-08-19T08:43:11;8.10;;;7.43;;
7179;SDS011;3631;42.152;24.756;2022-08-19T08:45:47;10.15;;;7.45;;
7179;SDS011;3631;42.152;24.756;2022-08-19T08:48:22;10.77;;;6.88;;
7179;SDS011;3631;42.152;24.756;2022-08-19T08:50:56;7.63;;;6.90;;
7179;SDS011;3631;42.152;24.756;2022-08-19T08:53:25;10.13;;;6.20;;
7179;SDS011;3631;42.152;24.756;2022-08-19T08:55:53;7.32;;;6.63;;
7179;SDS011;3631;42.152;24.756;2022-08-19T08:58:24;7.47;;;6.82;;
7179;SDS011;3631;42.152;24.756;2022-08-19T09:00:55;8.75;;;6.90;;
7179;SDS011;3631;42.152;24.756;2022-08-19T09:03:23;7.63;;;6.90;;
7179;SDS011;3631;42.152;24.756;2022-08-19T09:05:55;7.40;;;6.78;;
7179;SDS011;3631;42.152;24.756;2022-08-19T09:08:29;7.70;;;6.93;;
7179;SDS011;3631;42.152;24.756;2022-08-19T09:11:06;7.75;;;7.07;;
7179;SDS011;3631;42.152;24.756;2022-08-19T09:13:43;7.88;;;7.00;;
7179;SDS011;3631;42.152;24.756;2022-08-19T09:16:16;7.78;;;7.10;;
7179;SDS011;3631;42.152;24.756;2022-08-19T09:18:48;11.63;;;6.93;;
7179;SDS011;3631;42.152;24.756;2022-08-19T09:21:18;10.35;;;7.13;;
7179;SDS011;3631;42.152;24.756;2022-08-19T09:23:45;7.80;;;7.00;;
7179;SDS011;3631;42.152;24.756;2022-08-19T09:26:13;8.57;;;7.85;;
7179;SDS011;3631;42.152;24.756;2022-08-19T09:28:43;7.50;;;6.80;;
7179;SDS011;3631;42.152;24.756;2022-08-19T09:31:12;8.10;;;7.28;;
7179;SDS011;3631;42.152;24.756;2022-08-19T09:33:40;7.68;;;6.63;;
7179;SDS011;3631;42.152;24.756;2022-08-19T09:36:09;9.70;;;8.80;;
7179;SDS011;3631;42.152;24.756;2022-08-19T09:38:39;7.20;;;6.60;;
7179;SDS011;3631;42.152;24.756;2022-08-19T09:41:08;8.23;;;6.80;;
7179;SDS011;3631;42.152;24.756;2022-08-19T09:43:36;7.28;;;6.57;;
7179;SDS011;3631;42.152;24.756;2022-08-19T09:46:05;6.68;;;6.07;;
7179;SDS011;3631;42.152;24.756;2022-08-19T09:48:34;8.75;;;6.38;;
7179;SDS011;3631;42.152;24.756;2022-08-19T09:51:02;6.70;;;6.18;;
7179;SDS011;3631;42.152;24.756;2022-08-19T09:53:30;6.93;;;6.43;;
7179;SDS011;3631;42.152;24.756;2022-08-19T09:55:57;7.03;;;6.32;;
7179;SDS011;3631;42.152;24.756;2022-08-19T09:58:24;10.65;;;6.43;;
7179;SDS011;3631;42.152;24.756;2022-08-19T10:00:52;6.72;;;6.32;;
7179;SDS011;3631;42.152;24.756;2022-08-19T10:03:21;12.00;;;6.60;;
7179;SDS011;3631;42.152;24.756;2022-08-19T10:05:48;6.82;;;6.32;;
7179;SDS011;3631;42.152;24.756;2022-08-19T10:08:16;7.05;;;6.00;;
7179;SDS011;3631;42.152;24.756;2022-08-19T10:10:45;9.02;;;6.55;;
7179;SDS011;3631;42.152;24.756;2022-08-19T10:13:15;8.63;;;7.85;;
7179;SDS011;3631;42.152;24.756;2022-08-19T10:15:43;7.20;;;6.55;;
7179;SDS011;3631;42.152;24.756;2022-08-19T10:18:10;7.05;;;6.47;;
7179;SDS011;3631;42.152;24.756;2022-08-19T10:20:39;6.97;;;6.25;;
7179;SDS011;3631;42.152;24.756;2022-08-19T10:23:06;6.78;;;6.18;;
7179;SDS011;3631;42.152;24.756;2022-08-19T10:25:33;7.75;;;6.30;;
7179;SDS011;3631;42.152;24.756;2022-08-19T10:28:01;6.90;;;6.22;;
7179;SDS011;3631;42.152;24.756;2022-08-19T10:30:28;7.95;;;6.75;;
7179;SDS011;3631;42.152;24.756;2022-08-19T10:32:55;6.90;;;6.20;;
7179;SDS011;3631;42.152;24.756;2022-08-19T10:35:22;7.70;;;6.18;;
7179;SDS011;3631;42.152;24.756;2022-08-19T10:37:51;6.93;;;6.35;;
7179;SDS011;3631;42.152;24.756;2022-08-19T10:40:18;7.78;;;6.97;;
7179;SDS011;3631;42.152;24.756;2022-08-19T10:42:45;8.57;;;6.95;;
7179;SDS011;3631;42.152;24.756;2022-08-19T10:45:12;7.72;;;6.80;;
7179;SDS011;3631;42.152;24.756;2022-08-19T10:47:39;6.90;;;6.20;;
7179;SDS011;3631;42.152;24.756;2022-08-19T10:50:06;6.97;;;6.07;;
7179;SDS011;3631;42.152;24.756;2022-08-19T10:52:53;7.20;;;6.47;;
7179;SDS011;3631;42.152;24.756;2022-08-19T10:55:20;6.80;;;6.28;;
7179;SDS011;3631;42.152;24.756;2022-08-19T10:58:10;7.75;;;5.53;;
7179;SDS011;3631;42.152;24.756;2022-08-19T11:00:38;11.77;;;6.07;;
7179;SDS011;3631;42.152;24.756;2022-08-19T11:03:06;7.95;;;7.45;;
7179;SDS011;3631;42.152;24.756;2022-08-19T11:05:33;7.90;;;7.20;;
7179;SDS011;3631;42.152;24.756;2022-08-19T11:08:02;8.00;;;6.32;;
7179;SDS011;3631;42.152;24.756;2022-08-19T11:10:29;9.60;;;5.90;;
7179;SDS011;3631;42.152;24.756;2022-08-19T11:12:56;7.80;;;6.22;;
7179;SDS011;3631;42.152;24.756;2022-08-19T11:15:23;6.63;;;6.03;;
7179;SDS011;3631;42.152;24.756;2022-08-19T11:17:51;6.30;;;5.50;;
7179;SDS011;3631;42.152;24.756;2022-08-19T11:20:19;5.78;;;5.28;;
7179;SDS011;3631;42.152;24.756;2022-08-19T11:22:46;6.93;;;5.50;;
7179;SDS011;3631;42.152;24.756;2022-08-19T11:25:14;5.50;;;5.20;;
7179;SDS011;3631;42.152;24.756;2022-08-19T11:27:42;5.90;;;5.30;;
7179;SDS011;3631;42.152;24.756;2022-08-19T11:30:11;4.82;;;4.53;;
7179;SDS011;3631;42.152;24.756;2022-08-19T11:32:39;5.60;;;5.20;;
7179;SDS011;3631;42.152;24.756;2022-08-19T11:35:06;7.00;;;5.18;;
7179;SDS011;3631;42.152;24.756;2022-08-19T11:37:35;8.55;;;5.78;;
7179;SDS011;3631;42.152;24.756;2022-08-19T11:40:04;5.80;;;5.50;;
7179;SDS011;3631;42.152;24.756;2022-08-19T11:42:33;5.57;;;5.28;;
7179;SDS011;3631;42.152;24.756;2022-08-19T11:45:17;5.68;;;5.35;;
7179;SDS011;3631;42.152;24.756;2022-08-19T11:47:44;6.20;;;5.80;;
7179;SDS011;3631;42.152;24.756;2022-08-19T11:50:12;5.82;;;5.38;;
7179;SDS011;3631;42.152;24.756;2022-08-19T11:52:39;7.13;;;5.78;;
7179;SDS011;3631;42.152;24.756;2022-08-19T11:55:07;6.65;;;6.13;;
7179;SDS011;3631;42.152;24.756;2022-08-19T11:57:36;6.70;;;5.97;;
7179;SDS011;3631;42.152;24.756;2022-08-19T12:00:03;6.38;;;5.60;;
7179;SDS011;3631;42.152;24.756;2022-08-19T12:02:32;7.93;;;6.55;;
7179;SDS011;3631;42.152;24.756;2022-08-19T12:04:59;6.68;;;6.05;;
7179;SDS011;3631;42.152;24.756;2022-08-19T12:07:27;7.25;;;6.05;;
7179;SDS011;3631;42.152;24.756;2022-08-19T12:09:54;7.20;;;6.03;;
7179;SDS011;3631;42.152;24.756;2022-08-19T12:12:21;6.55;;;6.05;;
7179;SDS011;3631;42.152;24.756;2022-08-19T12:14:49;6.57;;;6.05;;
7179;SDS011;3631;42.152;24.756;2022-08-19T12:17:21;6.45;;;5.90;;
7179;SDS011;3631;42.152;24.756;2022-08-19T12:19:48;6.75;;;6.10;;
7179;SDS011;3631;42.152;24.756;2022-08-19T12:22:15;6.70;;;6.30;;
7179;SDS011;3631;42.152;24.756;2022-08-19T12:24:43;6.78;;;6.28;;
7179;SDS011;3631;42.152;24.756;2022-08-19T12:27:10;6.82;;;6.32;;
7179;SDS011;3631;42.152;24.756;2022-08-19T12:29:37;6.57;;;6.00;;
7179;SDS011;3631;42.152;24.756;2022-08-19T12:32:06;6.85;;;6.15;;
7179;SDS011;3631;42.152;24.756;2022-08-19T12:34:33;6.55;;;5.93;;
7179;SDS011;3631;42.152;24.756;2022-08-19T12:37:02;6.40;;;5.93;;
7179;SDS011;3631;42.152;24.756;2022-08-19T12:39:33;5.95;;;5.53;;
7179;SDS011;3631;42.152;24.756;2022-08-19T12:42:01;7.07;;;6.47;;
7179;SDS011;3631;42.152;24.756;2022-08-19T12:44:28;8.32;;;5.75;;
7179;SDS011;3631;42.152;24.756;2022-08-19T12:46:55;6.88;;;6.28;;
7179;SDS011;3631;42.152;24.756;2022-08-19T12:49:24;6.13;;;5.72;;
7179;SDS011;3631;42.152;24.756;2022-08-19T12:51:51;6.47;;;6.00;;
7179;SDS011;3631;42.152;24.756;2022-08-19T12:54:18;7.63;;;6.78;;
7179;SDS011;3631;42.152;24.756;2022-08-19T12:56:45;8.60;;;6.68;;
7179;SDS011;3631;42.152;24.756;2022-08-19T12:59:12;7.50;;;6.38;;
7179;SDS011;3631;42.152;24.756;2022-08-19T13:01:41;7.22;;;6.75;;
7179;SDS011;3631;42.152;24.756;2022-08-19T13:04:09;6.47;;;6.00;;
7179;SDS011;3631;42.152;24.756;2022-08-19T13:06:38;6.65;;;5.80;;
7179;SDS011;3631;42.152;24.756;2022-08-19T13:09:05;6.32;;;5.97;;
7179;SDS011;3631;42.152;24.756;2022-08-19T13:11:32;10.07;;;5.88;;
7179;SDS011;3631;42.152;24.756;2022-08-19T13:14:00;6.75;;;5.95;;
7179;SDS011;3631;42.152;24.756;2022-08-19T13:16:29;7.63;;;6.45;;
7179;SDS011;3631;42.152;24.756;2022-08-19T13:18:56;7.22;;;6.80;;
7179;SDS011;3631;42.152;24.756;2022-08-19T13:21:25;8.73;;;6.07;;
7179;SDS011;3631;42.152;24.756;2022-08-19T13:23:56;5.97;;;5.68;;
7179;SDS011;3631;42.152;24.756;2022-08-19T13:26:23;6.35;;;6.05;;
7179;SDS011;3631;42.152;24.756;2022-08-19T13:28:50;6.15;;;5.70;;
7179;SDS011;3631;42.152;24.756;2022-08-19T13:31:35;8.02;;;6.63;;
7179;SDS011;3631;42.152;24.756;2022-08-19T13:34:25;7.60;;;6.32;;
7179;SDS011;3631;42.152;24.756;2022-08-19T13:36:54;5.47;;;5.22;;
7179;SDS011;3631;42.152;24.756;2022-08-19T13:39:23;6.80;;;6.22;;
7179;SDS011;3631;42.152;24.756;2022-08-19T13:41:50;6.07;;;5.78;;
7179;SDS011;3631;42.152;24.756;2022-08-19T13:44:17;6.82;;;6.32;;
7179;SDS011;3631;42.152;24.756;2022-08-19T13:46:44;6.93;;;6.13;;
7179;SDS011;3631;42.152;24.756;2022-08-19T13:49:12;7.38;;;6.80;;
7179;SDS011;3631;42.152;24.756;2022-08-19T13:51:40;7.22;;;6.45;;
7179;SDS011;3631;42.152;24.756;2022-08-19T13:54:08;8.40;;;6.72;;
7179;SDS011;3631;42.152;24.756;2022-08-19T13:56:40;6.43;;;5.95;;
7179;SDS011;3631;42.152;24.756;2022-08-19T13:59:08;6.65;;;6.05;;
7179;SDS011;3631;42.152;24.756;2022-08-19T14:01:35;7.53;;;6.10;;
7179;SDS011;3631;42.152;24.756;2022-08-19T14:04:03;5.85;;;5.45;;
7179;SDS011;3631;42.152;24.756;2022-08-19T14:06:30;6.57;;;6.07;;
7179;SDS011;3631;42.152;24.756;2022-08-19T14:08:57;6.43;;;5.70;;
7179;SDS011;3631;42.152;24.756;2022-08-19T14:11:24;7.03;;;6.43;;
7179;SDS011;3631;42.152;24.756;2022-08-19T14:13:53;6.35;;;5.68;;
7179;SDS011;3631;42.152;24.756;2022-08-19T14:16:20;6.82;;;6.22;;
7179;SDS011;3631;42.152;24.756;2022-08-19T14:18:47;7.78;;;6.35;;
7179;SDS011;3631;42.152;24.756;2022-08-19T14:21:15;6.88;;;6.40;;
7179;SDS011;3631;42.152;24.756;2022-08-19T14:23:43;6.28;;;5.88;;
7179;SDS011;3631;42.152;24.756;2022-08-19T14:26:11;6.38;;;5.97;;
7179;SDS011;3631;42.152;24.756;2022-08-19T14:28:41;6.28;;;5.97;;
7179;SDS011;3631;42.152;24.756;2022-08-19T14:31:10;6.88;;;6.57;;
7179;SDS011;3631;42.152;24.756;2022-08-19T14:33:38;7.03;;;6.30;;
7179;SDS011;3631;42.152;24.756;2022-08-19T14:36:05;7.57;;;7.00;;
7179;SDS011;3631;42.152;24.756;2022-08-19T14:38:33;6.60;;;6.30;;
7179;SDS011;3631;42.152;24.756;2022-08-19T14:41:06;6.93;;;6.32;;
7179;SDS011;3631;42.152;24.756;2022-08-19T14:43:38;6.95;;;6.13;;
7179;SDS011;3631;42.152;24.756;2022-08-19T14:46:05;6.93;;;6.53;;
7179;SDS011;3631;42.152;24.756;2022-08-19T14:48:34;6.75;;;6.05;;
7179;SDS011;3631;42.152;24.756;2022-08-19T14:51:03;6.63;;;6.13;;
7179;SDS011;3631;42.152;24.756;2022-08-19T14:53:31;8.38;;;6.32;;
7179;SDS011;3631;42.152;24.756;2022-08-19T14:55:59;7.15;;;6.43;;
7179;SDS011;3631;42.152;24.756;2022-08-19T14:58:27;6.43;;;5.93;;
7179;SDS011;3631;42.152;24.756;2022-08-19T15:00:54;6.10;;;5.70;;
7179;SDS011;3631;42.152;24.756;2022-08-19T15:03:21;6.47;;;5.90;;